createdAt,value
2022-10-19T00:01:19.652Z,7.80
2022-10-19T00:06:36.514Z,7.80
2022-10-19T00:09:05.865Z,7.70
2022-10-19T00:11:34.642Z,7.70
2022-10-19T00:14:02.736Z,7.70
2022-10-19T00:16:33.467Z,7.70
2022-10-19T00:19:05.875Z,7.60
2022-10-19T00:21:33.859Z,7.60
2022-10-19T00:24:01.418Z,7.60
2022-10-19T00:26:29.068Z,7.60
2022-10-19T00:28:57.467Z,7.60
2022-10-19T00:31:25.786Z,7.60
2022-10-19T00:33:55.419Z,7.70
2022-10-19T00:36:34.733Z,7.60
2022-10-19T00:39:03.854Z,7.60
2022-10-19T00:41:33.638Z,7.60
2022-10-19T00:44:26.953Z,7.50
2022-10-19T00:46:59.094Z,7.50
2022-10-19T00:49:30.261Z,7.50
2022-10-19T00:52:02.734Z,7.50
2022-10-19T00:54:32.665Z,7.50
2022-10-19T00:57:00.566Z,7.60
2022-10-19T00:59:31.842Z,7.60
2022-10-19T01:02:01.550Z,7.60
2022-10-19T01:04:30.673Z,7.60
2022-10-19T01:06:59.708Z,7.60
2022-10-19T01:09:27.331Z,7.50
2022-10-19T01:12:06.536Z,7.50
2022-10-19T01:14:52.333Z,7.60
2022-10-19T01:17:54.285Z,7.60
2022-10-19T01:20:27.244Z,7.60
2022-10-19T01:23:00.443Z,7.60
2022-10-19T01:25:45.207Z,7.60
2022-10-19T01:28:35.101Z,7.60
2022-10-19T01:31:11.080Z,7.50
2022-10-19T01:33:41.226Z,7.70
2022-10-19T01:36:27.367Z,7.70
2022-10-19T01:39:24.240Z,7.90
2022-10-19T01:42:11.730Z,8.00
2022-10-19T01:44:43.197Z,8.00
2022-10-19T01:47:27.693Z,8.10
2022-10-19T01:50:00.715Z,8.20
2022-10-19T01:52:29.277Z,8.20
2022-10-19T01:54:59.780Z,8.30
2022-10-19T01:57:34.274Z,8.30
2022-10-19T02:00:07.536Z,8.40
2022-10-19T02:02:46.310Z,8.40
2022-10-19T02:05:15.597Z,8.50
2022-10-19T02:07:47.758Z,8.50
2022-10-19T02:12:49.107Z,8.60
2022-10-19T02:15:21.159Z,8.60
2022-10-19T02:17:53.687Z,8.70
2022-10-19T02:20:21.773Z,8.80
2022-10-19T02:22:49.486Z,8.80
2022-10-19T02:25:17.389Z,8.90
2022-10-19T02:27:45.238Z,9.00
2022-10-19T02:30:16.307Z,9.00
2022-10-19T02:32:44.455Z,9.00
2022-10-19T02:35:14.601Z,9.10
2022-10-19T02:37:42.901Z,9.10
2022-10-19T02:40:11.457Z,9.10
2022-10-19T02:42:41.869Z,9.00
2022-10-19T02:45:16.768Z,9.00
2022-10-19T02:47:52.257Z,9.00
2022-10-19T02:50:20.943Z,8.90
2022-10-19T02:52:48.345Z,9.00
2022-10-19T02:55:16.160Z,9.00
2022-10-19T02:57:43.739Z,8.90
2022-10-19T03:00:11.984Z,9.00
2022-10-19T03:02:39.515Z,9.00
2022-10-19T03:05:07.299Z,9.00
2022-10-19T03:07:35.186Z,8.90
2022-10-19T03:10:02.882Z,9.00
2022-10-19T03:12:30.424Z,9.00
2022-10-19T03:14:57.922Z,9.00
2022-10-19T03:17:25.479Z,9.00
2022-10-19T03:19:52.944Z,9.00
2022-10-19T03:22:20.496Z,9.00
2022-10-19T03:24:47.995Z,9.00
2022-10-19T03:27:15.663Z,9.00
2022-10-19T03:29:43.091Z,9.00
2022-10-19T03:32:10.669Z,9.00
2022-10-19T03:34:38.104Z,9.10
2022-10-19T03:37:06.107Z,9.10
2022-10-19T03:39:33.525Z,9.10
2022-10-19T03:42:01.044Z,9.20
2022-10-19T03:44:28.482Z,9.10
2022-10-19T03:46:55.985Z,9.10
2022-10-19T03:49:23.458Z,9.10
2022-10-19T03:51:50.946Z,9.20
2022-10-19T03:54:18.486Z,9.20
2022-10-19T03:56:46.062Z,9.20
2022-10-19T03:59:15.176Z,9.20
2022-10-19T04:01:45.342Z,9.20
2022-10-19T04:04:15.980Z,9.30
2022-10-19T04:06:46.096Z,9.30
2022-10-19T04:09:19.064Z,9.30
2022-10-19T04:11:47.204Z,9.30
2022-10-19T04:14:26.718Z,9.30
2022-10-19T04:17:01.945Z,9.30
2022-10-19T04:19:29.488Z,9.40
2022-10-19T04:21:57.417Z,9.40
2022-10-19T04:24:24.880Z,9.40
2022-10-19T04:26:54.411Z,9.30
2022-10-19T04:29:27.905Z,9.40
2022-10-19T04:31:57.752Z,9.40
2022-10-19T04:34:25.305Z,9.40
2022-10-19T04:36:53.921Z,9.40
2022-10-19T04:39:21.374Z,9.40
2022-10-19T04:41:48.857Z,9.40
2022-10-19T04:44:16.408Z,9.40
2022-10-19T04:46:43.969Z,9.40
2022-10-19T04:49:14.125Z,9.40
2022-10-19T04:51:45.373Z,9.30
2022-10-19T04:54:12.868Z,9.40
2022-10-19T04:56:40.529Z,9.40
2022-10-19T04:59:08.390Z,9.40
2022-10-19T05:01:35.960Z,9.50
2022-10-19T05:04:03.599Z,9.50
2022-10-19T05:06:32.003Z,9.50
2022-10-19T05:09:00.133Z,9.50
2022-10-19T05:11:28.039Z,9.50
2022-10-19T05:13:57.260Z,9.50
2022-10-19T05:16:24.861Z,9.50
2022-10-19T05:18:59.028Z,9.50
2022-10-19T05:21:28.891Z,9.50
2022-10-19T05:23:57.100Z,9.40
2022-10-19T05:26:26.819Z,9.50
2022-10-19T05:28:57.233Z,9.50
2022-10-19T05:31:27.233Z,9.50
2022-10-19T05:33:56.525Z,9.50
2022-10-19T05:36:32.312Z,9.50
2022-10-19T05:39:02.689Z,9.60
2022-10-19T05:41:30.175Z,9.60
2022-10-19T05:44:00.001Z,9.60
2022-10-19T05:46:29.695Z,9.60
2022-10-19T05:48:58.566Z,9.60
2022-10-19T05:51:27.761Z,9.60
2022-10-19T05:53:56.791Z,9.60
2022-10-19T05:56:26.678Z,9.60
2022-10-19T05:58:56.855Z,9.70
2022-10-19T06:01:24.966Z,9.70
2022-10-19T06:03:54.473Z,9.80
2022-10-19T06:06:22.844Z,9.80
2022-10-19T06:08:51.036Z,9.80
2022-10-19T06:11:22.696Z,9.80
2022-10-19T06:13:53.378Z,9.80
2022-10-19T06:16:23.146Z,9.80
2022-10-19T06:18:51.237Z,9.80
2022-10-19T06:21:21.731Z,9.80
2022-10-19T06:23:57.372Z,9.80
2022-10-19T06:26:26.060Z,9.80
2022-10-19T06:28:58.017Z,9.80
2022-10-19T06:31:25.589Z,9.90
2022-10-19T06:33:53.774Z,9.80
2022-10-19T06:36:24.719Z,9.90
2022-10-19T06:38:53.279Z,9.90
2022-10-19T06:41:21.017Z,9.90
2022-10-19T06:43:52.805Z,9.80
2022-10-19T06:46:23.378Z,9.90
2022-10-19T06:48:58.605Z,9.80
2022-10-19T06:51:28.283Z,9.80
2022-10-19T06:53:57.234Z,9.80
2022-10-19T06:56:26.207Z,9.80
2022-10-19T06:58:54.570Z,9.80
2022-10-19T07:01:23.137Z,9.80
2022-10-19T07:03:52.261Z,9.80
2022-10-19T07:06:19.909Z,9.80
2022-10-19T07:08:47.879Z,9.90
2022-10-19T07:11:17.973Z,9.90
2022-10-19T07:13:45.739Z,9.90
2022-10-19T07:16:19.555Z,9.90
2022-10-19T07:18:51.066Z,9.80
2022-10-19T07:21:20.356Z,9.90
2022-10-19T07:23:48.305Z,9.80
2022-10-19T07:26:23.469Z,9.90
2022-10-19T07:28:58.842Z,9.90
2022-10-19T07:31:28.543Z,9.90
2022-10-19T07:33:59.937Z,9.90
2022-10-19T07:36:28.395Z,9.90
2022-10-19T07:38:56.007Z,9.90
2022-10-19T07:41:25.925Z,9.90
2022-10-19T07:43:55.292Z,9.90
2022-10-19T07:46:29.350Z,9.90
2022-10-19T07:48:56.964Z,9.90
2022-10-19T07:51:24.456Z,10.00
2022-10-19T07:53:52.561Z,10.00
2022-10-19T07:56:22.888Z,10.00
2022-10-19T07:58:51.731Z,10.00
2022-10-19T08:01:21.594Z,10.00
2022-10-19T08:06:38.342Z,10.00
2022-10-19T08:09:05.992Z,10.00
2022-10-19T08:11:35.204Z,10.00
2022-10-19T08:14:03.696Z,10.00
2022-10-19T08:16:40.365Z,10.00
2022-10-19T08:19:15.687Z,10.00
2022-10-19T08:21:45.924Z,10.00
2022-10-19T08:24:15.503Z,10.10
2022-10-19T08:26:43.291Z,10.00
2022-10-19T08:29:17.917Z,10.10
2022-10-19T08:31:47.118Z,10.10
2022-10-19T08:34:15.823Z,10.10
2022-10-19T08:36:43.906Z,10.10
2022-10-19T08:39:12.866Z,10.10
2022-10-19T08:41:40.503Z,10.10
2022-10-19T08:44:31.528Z,10.10
2022-10-19T08:47:14.069Z,10.20
2022-10-19T08:49:42.546Z,10.20
2022-10-19T08:52:24.356Z,10.20
2022-10-19T08:54:59.542Z,10.20
2022-10-19T08:57:48.508Z,10.20
2022-10-19T09:00:19.318Z,10.20
2022-10-19T09:02:58.670Z,10.30
2022-10-19T09:06:04.714Z,10.30
2022-10-19T09:08:33.922Z,10.30
2022-10-19T09:11:01.475Z,10.40
2022-10-19T09:13:46.979Z,10.40
2022-10-19T09:16:27.628Z,10.40
2022-10-19T09:21:47.822Z,10.40
2022-10-19T09:24:50.928Z,10.50
2022-10-19T09:27:24.370Z,10.40
2022-10-19T09:29:58.510Z,10.40
2022-10-19T09:32:34.072Z,10.40
2022-10-19T09:35:05.528Z,10.40
2022-10-19T09:37:40.466Z,10.40
2022-10-19T09:40:17.576Z,10.40
2022-10-19T09:42:45.550Z,10.40
2022-10-19T09:45:34.594Z,10.40
2022-10-19T09:50:21.613Z,10.40
2022-10-19T09:52:55.252Z,10.30
2022-10-19T09:55:38.155Z,10.30
2022-10-19T09:58:17.923Z,10.40
2022-10-19T10:00:46.640Z,10.40
2022-10-19T10:03:32.046Z,10.40
2022-10-19T10:06:04.761Z,10.40
2022-10-19T10:08:36.673Z,10.50
2022-10-19T10:11:22.786Z,10.50
2022-10-19T10:13:53.205Z,10.50
2022-10-19T10:16:24.033Z,10.50
2022-10-19T10:18:59.181Z,10.50
2022-10-19T10:21:32.926Z,10.40
2022-10-19T10:24:03.654Z,10.40
2022-10-19T10:26:32.163Z,10.30
2022-10-19T10:29:01.420Z,10.30
2022-10-19T10:31:30.701Z,10.30
2022-10-19T10:34:12.158Z,10.30
2022-10-19T10:36:53.793Z,10.30
2022-10-19T10:39:21.702Z,10.30
2022-10-19T10:41:49.416Z,10.30
2022-10-19T10:44:21.835Z,10.30
2022-10-19T10:47:04.695Z,10.40
2022-10-19T10:49:37.644Z,10.40
2022-10-19T10:52:09.988Z,10.40
2022-10-19T10:54:38.055Z,10.50
2022-10-19T10:57:13.168Z,10.50
2022-10-19T11:00:11.092Z,10.50
2022-10-19T11:02:42.001Z,10.50
2022-10-19T11:05:26.833Z,10.70
2022-10-19T11:08:12.766Z,10.70
2022-10-19T11:10:47.717Z,10.80
2022-10-19T11:13:35.506Z,10.70
2022-10-19T11:16:17.914Z,10.80
2022-10-19T11:18:51.305Z,10.80
2022-10-19T11:21:50.948Z,10.70
2022-10-19T11:24:56.353Z,10.70
2022-10-19T11:27:47.587Z,10.70
2022-10-19T11:30:20.746Z,10.70
2022-10-19T11:33:26.008Z,10.60
2022-10-19T11:36:01.964Z,10.70
2022-10-19T11:39:01.849Z,10.60
2022-10-19T11:41:45.162Z,10.70
2022-10-19T11:44:24.349Z,10.60
2022-10-19T11:47:13.549Z,10.70
2022-10-19T11:49:59.335Z,10.70
2022-10-19T11:52:40.489Z,10.70
2022-10-19T11:55:23.338Z,10.70
2022-10-19T11:57:56.921Z,10.80
2022-10-19T12:00:38.653Z,10.80
2022-10-19T12:03:13.011Z,10.80
2022-10-19T12:06:34.632Z,10.70
2022-10-19T12:09:28.410Z,10.70
2022-10-19T12:12:20.788Z,10.60
2022-10-19T12:14:52.908Z,10.70
2022-10-19T12:17:33.282Z,10.60
2022-10-19T12:20:09.655Z,10.60
2022-10-19T12:22:38.052Z,10.70
2022-10-19T12:25:06.448Z,10.60
2022-10-19T12:27:37.617Z,10.70
2022-10-19T12:30:17.737Z,10.70
2022-10-19T12:33:21.095Z,10.70
2022-10-19T12:35:53.103Z,10.70
2022-10-19T12:38:45.946Z,10.70
2022-10-19T12:41:45.672Z,10.60
2022-10-19T12:44:34.482Z,10.50
2022-10-19T12:47:23.067Z,10.50
2022-10-19T12:49:51.710Z,10.40
2022-10-19T12:52:44.661Z,10.40
2022-10-19T12:55:19.401Z,10.50
2022-10-19T12:57:55.901Z,10.50
2022-10-19T13:00:37.798Z,10.50
2022-10-19T13:03:27.683Z,10.40
2022-10-19T13:05:59.806Z,10.50
2022-10-19T13:08:32.408Z,10.50
2022-10-19T13:11:10.068Z,10.50
2022-10-19T13:14:02.494Z,10.50
2022-10-19T13:16:29.893Z,10.40
2022-10-19T13:19:00.406Z,10.50
2022-10-19T13:21:55.250Z,10.40
2022-10-19T13:24:25.528Z,10.40
2022-10-19T13:27:05.273Z,10.40
2022-10-19T13:29:42.919Z,10.40
2022-10-19T13:32:34.446Z,10.40
2022-10-19T13:35:34.471Z,10.50
2022-10-19T13:38:17.120Z,10.50
2022-10-19T13:40:47.553Z,10.40
2022-10-19T13:43:26.804Z,10.50
2022-10-19T13:46:09.691Z,10.50
2022-10-19T13:49:01.583Z,10.40
2022-10-19T13:51:53.608Z,10.40
2022-10-19T13:54:33.408Z,10.40
2022-10-19T13:57:26.539Z,10.40
2022-10-19T14:00:00.103Z,10.40
2022-10-19T14:02:58.221Z,10.40
2022-10-19T14:05:59.551Z,10.30
2022-10-19T14:08:43.457Z,10.40
2022-10-19T14:11:18.017Z,10.40
2022-10-19T14:13:46.500Z,10.40
2022-10-19T14:16:22.429Z,10.40
2022-10-19T14:18:56.995Z,10.40
2022-10-19T14:21:36.917Z,10.40
2022-10-19T14:24:20.403Z,10.50
2022-10-19T14:26:48.072Z,10.50
2022-10-19T14:29:15.875Z,10.50
2022-10-19T14:31:43.561Z,10.50
2022-10-19T14:34:11.152Z,10.50
2022-10-19T14:36:48.808Z,10.40
2022-10-19T14:39:33.204Z,10.40
2022-10-19T14:42:05.891Z,10.30
2022-10-19T14:44:43.211Z,10.30
2022-10-19T14:47:27.754Z,10.20
2022-10-19T14:49:55.367Z,10.30
2022-10-19T14:52:34.958Z,10.30
2022-10-19T14:55:12.650Z,10.40
2022-10-19T14:57:47.664Z,10.40
2022-10-19T15:00:21.295Z,10.40
2022-10-19T15:03:01.983Z,10.40
2022-10-19T15:05:35.942Z,10.40
2022-10-19T15:08:15.928Z,10.40
2022-10-19T15:10:47.135Z,10.50
2022-10-19T15:13:25.972Z,10.40
2022-10-19T15:15:54.952Z,10.40
2022-10-19T15:18:47.685Z,10.40
2022-10-19T15:21:20.291Z,10.40
2022-10-19T15:23:52.797Z,10.40
2022-10-19T15:26:26.261Z,10.40
2022-10-19T15:29:06.661Z,10.40
2022-10-19T15:31:34.229Z,10.30
2022-10-19T15:34:02.550Z,10.30
2022-10-19T15:36:34.378Z,10.30
2022-10-19T15:39:18.089Z,10.30
2022-10-19T15:41:52.518Z,10.20
2022-10-19T15:44:46.406Z,10.30
2022-10-19T15:47:19.479Z,10.20
2022-10-19T15:49:56.055Z,10.20
2022-10-19T15:52:28.982Z,10.20
2022-10-19T15:54:58.747Z,10.30
2022-10-19T15:57:34.155Z,10.30
2022-10-19T16:00:16.452Z,10.30
2022-10-19T16:02:44.678Z,10.30
2022-10-19T16:05:12.138Z,10.30
2022-10-19T16:07:41.131Z,10.30
2022-10-19T16:10:18.721Z,10.30
2022-10-19T16:12:47.773Z,10.20
2022-10-19T16:15:22.349Z,10.20
2022-10-19T16:17:53.229Z,10.20
2022-10-19T16:20:22.013Z,10.20
2022-10-19T16:22:49.768Z,10.20
2022-10-19T16:25:17.920Z,10.20
2022-10-19T16:27:45.417Z,10.20
2022-10-19T16:30:13.393Z,10.20
2022-10-19T16:35:10.310Z,10.20
2022-10-19T16:37:37.968Z,10.10
2022-10-19T16:40:06.228Z,10.00
2022-10-19T16:42:34.946Z,9.90
2022-10-19T16:45:02.623Z,9.80
2022-10-19T16:47:30.042Z,9.80
2022-10-19T16:50:00.121Z,9.90
2022-10-19T16:52:33.038Z,9.90
2022-10-19T16:55:01.061Z,9.90
2022-10-19T16:57:28.551Z,9.90
2022-10-19T16:59:56.025Z,9.90
2022-10-19T17:02:23.785Z,9.90
2022-10-19T17:04:51.310Z,9.90
2022-10-19T17:07:19.266Z,9.90
2022-10-19T17:09:49.713Z,10.00
2022-10-19T17:12:19.885Z,10.00
2022-10-19T17:14:47.405Z,10.00
2022-10-19T17:17:17.190Z,10.10
2022-10-19T17:19:44.783Z,10.10
2022-10-19T17:22:12.461Z,10.10
2022-10-19T17:24:41.494Z,10.10
2022-10-19T17:27:09.164Z,10.10
2022-10-19T17:29:36.637Z,10.10
2022-10-19T17:32:04.187Z,10.10
2022-10-19T17:34:31.817Z,10.10
2022-10-19T17:36:59.281Z,10.10
2022-10-19T17:39:29.119Z,10.10
2022-10-19T17:42:02.014Z,10.10
2022-10-19T17:44:31.355Z,10.00
2022-10-19T17:47:00.648Z,10.10
2022-10-19T17:49:29.841Z,10.10
2022-10-19T17:51:57.628Z,10.10
2022-10-19T17:54:25.403Z,10.10
2022-10-19T17:56:53.008Z,10.00
2022-10-19T17:59:30.306Z,10.00
2022-10-19T18:02:04.040Z,10.00
2022-10-19T18:04:31.906Z,9.90
2022-10-19T18:06:59.437Z,10.00
2022-10-19T18:09:26.886Z,10.00
2022-10-19T18:11:54.725Z,9.90
2022-10-19T18:14:22.242Z,9.90
2022-10-19T18:16:50.387Z,10.00
2022-10-19T18:19:18.014Z,10.00
2022-10-19T18:21:47.327Z,10.00
2022-10-19T18:24:19.387Z,10.00
2022-10-19T18:26:48.096Z,10.00
2022-10-19T18:29:21.882Z,10.00
2022-10-19T18:31:52.407Z,10.00
2022-10-19T18:34:25.124Z,10.00
2022-10-19T18:36:53.249Z,9.90
2022-10-19T18:39:20.847Z,9.70
2022-10-19T18:41:52.363Z,9.70
2022-10-19T18:44:25.271Z,9.70
2022-10-19T18:46:55.811Z,9.70
2022-10-19T18:49:24.204Z,9.70
2022-10-19T18:51:55.117Z,9.60
2022-10-19T18:54:26.276Z,9.60
2022-10-19T18:56:54.312Z,9.60
2022-10-19T18:59:21.903Z,9.50
2022-10-19T19:01:49.483Z,9.50
2022-10-19T19:04:16.992Z,9.50
2022-10-19T19:06:44.576Z,9.50
2022-10-19T19:09:12.973Z,9.50
2022-10-19T19:11:41.254Z,9.40
2022-10-19T19:14:12.291Z,9.40
2022-10-19T19:16:41.125Z,9.40
2022-10-19T19:19:10.749Z,9.40
2022-10-19T19:21:41.116Z,9.50
2022-10-19T19:24:08.622Z,9.40
2022-10-19T19:26:39.563Z,9.40
2022-10-19T19:29:07.664Z,9.40
2022-10-19T19:31:35.419Z,9.50
2022-10-19T19:34:06.371Z,9.50
2022-10-19T19:36:34.006Z,9.50
2022-10-19T19:39:02.070Z,9.50
2022-10-19T19:41:31.271Z,9.60
2022-10-19T19:43:59.132Z,9.50
2022-10-19T19:46:26.934Z,9.50
2022-10-19T19:49:01.044Z,9.50
2022-10-19T19:51:30.015Z,9.60
2022-10-19T19:53:57.596Z,9.60
2022-10-19T19:56:25.455Z,9.60
2022-10-19T19:58:58.431Z,9.60
2022-10-19T20:01:26.738Z,9.70
2022-10-19T20:03:54.345Z,9.70
2022-10-19T20:06:25.049Z,9.70
2022-10-19T20:08:57.498Z,9.70
2022-10-19T20:11:27.026Z,9.70
2022-10-19T20:13:54.743Z,9.70
2022-10-19T20:16:29.364Z,9.70
2022-10-19T20:19:08.178Z,9.70
2022-10-19T20:21:36.153Z,9.70
2022-10-19T20:24:05.856Z,9.70
2022-10-19T20:26:33.697Z,9.70
2022-10-19T20:29:04.581Z,9.70
2022-10-19T20:31:33.628Z,9.70
2022-10-19T20:34:01.157Z,9.70
2022-10-19T20:36:28.682Z,9.80
2022-10-19T20:38:58.208Z,9.70
2022-10-19T20:41:27.706Z,9.70
2022-10-19T20:43:56.132Z,9.80
2022-10-19T20:46:26.897Z,9.80
2022-10-19T20:48:59.790Z,9.80
2022-10-19T20:51:32.843Z,9.80
2022-10-19T20:54:02.597Z,9.90
2022-10-19T20:56:34.975Z,10.00
2022-10-19T20:59:13.999Z,9.90
2022-10-19T21:01:42.932Z,10.00
2022-10-19T21:04:12.795Z,10.00
2022-10-19T21:06:46.284Z,10.00
2022-10-19T21:09:18.132Z,10.00
2022-10-19T21:11:47.362Z,10.10
2022-10-19T21:14:27.037Z,10.10
2022-10-19T21:16:57.987Z,10.10
2022-10-19T21:19:28.224Z,10.10
2022-10-19T21:21:58.425Z,10.10
2022-10-19T21:24:28.495Z,10.10
2022-10-19T21:26:56.099Z,10.10
2022-10-19T21:29:23.527Z,10.10
2022-10-19T21:31:53.111Z,10.10
2022-10-19T21:34:23.441Z,10.10
2022-10-19T21:36:51.473Z,10.10
2022-10-19T21:39:19.277Z,10.10
2022-10-19T21:41:47.842Z,10.10
2022-10-19T21:44:16.440Z,10.10
2022-10-19T21:46:44.575Z,10.10
2022-10-19T21:49:12.760Z,10.10
2022-10-19T21:51:51.592Z,10.20
2022-10-19T21:54:21.319Z,10.10
2022-10-19T21:56:49.199Z,10.10
2022-10-19T21:59:17.448Z,10.10
2022-10-19T22:01:45.052Z,10.10
2022-10-19T22:04:15.249Z,10.10
2022-10-19T22:06:43.300Z,10.10
2022-10-19T22:09:14.768Z,10.10
2022-10-19T22:11:42.996Z,10.10
2022-10-19T22:14:12.753Z,10.10
2022-10-19T22:16:41.007Z,10.10
2022-10-19T22:19:10.116Z,10.10
2022-10-19T22:24:15.574Z,10.10
2022-10-19T22:26:47.247Z,10.10
2022-10-19T22:29:15.016Z,10.10
2022-10-19T22:31:42.795Z,10.10
2022-10-19T22:34:13.453Z,10.10
2022-10-19T22:36:41.205Z,10.10
2022-10-19T22:39:09.339Z,10.10
2022-10-19T22:41:36.812Z,10.10
2022-10-19T22:44:04.563Z,10.10
2022-10-19T22:46:32.526Z,10.20
2022-10-19T22:49:00.020Z,10.20
2022-10-19T22:51:27.602Z,10.20
2022-10-19T22:53:55.215Z,10.20
2022-10-19T22:56:22.753Z,10.30
2022-10-19T22:58:50.224Z,10.30
2022-10-19T23:01:17.836Z,10.30
2022-10-19T23:03:45.635Z,10.30
2022-10-19T23:06:14.850Z,10.20
2022-10-19T23:08:43.518Z,10.30
2022-10-19T23:11:11.953Z,10.30
2022-10-19T23:13:39.441Z,10.30
2022-10-19T23:16:07.437Z,10.30
2022-10-19T23:18:37.545Z,10.30
2022-10-19T23:21:08.097Z,10.30
2022-10-19T23:23:36.964Z,10.30
2022-10-19T23:26:21.259Z,10.30
2022-10-19T23:28:50.018Z,10.30
2022-10-19T23:31:25.563Z,10.30
2022-10-19T23:33:54.271Z,10.30
2022-10-19T23:36:27.249Z,10.30
2022-10-19T23:38:56.026Z,10.30
2022-10-19T23:41:23.603Z,10.30
2022-10-19T23:43:51.057Z,10.30
2022-10-19T23:46:18.868Z,10.30
2022-10-19T23:48:46.541Z,10.30
2022-10-19T23:51:19.103Z,10.40
2022-10-19T23:53:49.184Z,10.40
2022-10-19T23:56:19.112Z,10.30
2022-10-19T23:58:46.937Z,10.30
